createdAt,value
2018-05-15T00:01:34.657Z,100884.13
2018-05-15T00:04:03.706Z,100899.42
2018-05-15T00:06:32.003Z,100894.20
2018-05-15T00:09:00.304Z,100892.76
2018-05-15T00:11:28.697Z,100895.33
2018-05-15T00:13:57.075Z,100897.13
2018-05-15T00:16:25.416Z,100900.03
2018-05-15T00:18:55.042Z,100901.72
2018-05-15T00:21:24.782Z,100903.52
2018-05-15T00:23:53.203Z,100906.06
2018-05-15T00:26:22.924Z,100910.46
2018-05-15T00:28:51.691Z,100912.05
2018-05-15T00:31:21.365Z,100906.16
2018-05-15T00:33:49.687Z,100907.92
2018-05-15T00:36:18.751Z,100913.86
2018-05-15T00:38:47.053Z,100911.56
2018-05-15T00:41:15.508Z,100913.11
2018-05-15T00:43:43.888Z,100907.64
2018-05-15T00:46:13.818Z,100909.38
2018-05-15T00:48:42.117Z,100902.65
2018-05-15T00:51:10.471Z,100911.39
2018-05-15T00:53:38.899Z,100914.72
2018-05-15T00:56:07.177Z,100913.61
2018-05-15T00:58:35.445Z,100911.50
2018-05-15T01:01:06.024Z,100910.22
2018-05-15T01:03:34.305Z,100905.75
2018-05-15T01:06:03.353Z,100902.67
2018-05-15T01:08:31.612Z,100915.37
2018-05-15T01:10:59.881Z,100910.45
2018-05-15T01:13:28.921Z,100911.34
2018-05-15T01:15:57.233Z,100915.37
2018-05-15T01:18:25.525Z,100914.99
2018-05-15T01:20:53.877Z,100909.23
2018-05-15T01:23:22.156Z,100907.31
2018-05-15T01:25:50.531Z,100908.72
2018-05-15T01:28:18.845Z,100904.61
2018-05-15T01:30:47.215Z,100913.02
2018-05-15T01:33:15.395Z,100908.55
2018-05-15T01:35:43.712Z,100905.08
2018-05-15T01:38:12.833Z,100908.50
2018-05-15T01:40:41.108Z,100911.19
2018-05-15T01:43:09.368Z,100911.99
2018-05-15T01:45:37.631Z,100910.48
2018-05-15T01:48:05.990Z,100911.97
2018-05-15T01:50:34.265Z,100906.00
2018-05-15T01:53:03.308Z,100908.97
2018-05-15T01:55:31.568Z,100907.54
2018-05-15T01:57:59.864Z,100911.73
2018-05-15T02:00:28.157Z,100904.16
2018-05-15T02:02:56.419Z,100906.36
2018-05-15T02:05:24.707Z,100912.47
2018-05-15T02:07:54.103Z,100912.06
2018-05-15T02:10:22.374Z,100911.72
2018-05-15T02:12:51.447Z,100913.98
2018-05-15T02:15:19.725Z,100913.53
2018-05-15T02:17:48.751Z,100908.00
2018-05-15T02:20:17.140Z,100904.71
2018-05-15T02:22:45.425Z,100912.56
2018-05-15T02:25:14.458Z,100915.95
2018-05-15T02:27:42.834Z,100920.47
2018-05-15T02:30:11.115Z,100918.27
2018-05-15T02:32:39.411Z,100917.31
2018-05-15T02:35:07.710Z,100917.39
2018-05-15T02:37:41.012Z,100914.91
2018-05-15T02:40:09.298Z,100917.32
2018-05-15T02:42:39.314Z,100922.67
2018-05-15T02:45:08.436Z,100919.44
2018-05-15T02:47:36.710Z,100929.31
2018-05-15T02:50:04.989Z,100935.18
2018-05-15T02:52:33.272Z,100935.20
2018-05-15T02:55:01.528Z,100934.10
2018-05-15T02:57:29.812Z,100930.17
2018-05-15T02:59:58.066Z,100926.31
2018-05-15T03:02:27.198Z,100929.70
2018-05-15T03:04:55.531Z,100923.84
2018-05-15T03:07:23.803Z,100928.80
2018-05-15T03:09:52.186Z,100923.80
2018-05-15T03:12:20.470Z,100928.63
2018-05-15T03:14:48.848Z,100932.28
2018-05-15T03:17:17.131Z,100926.78
2018-05-15T03:19:45.533Z,100935.91
2018-05-15T03:22:13.893Z,100942.67
2018-05-15T03:24:42.188Z,100944.77
2018-05-15T03:27:10.481Z,100941.97
2018-05-15T03:29:38.723Z,100940.78
2018-05-15T03:32:07.088Z,100948.02
2018-05-15T03:34:36.111Z,100946.69
2018-05-15T03:37:04.669Z,100952.73
2018-05-15T03:39:33.088Z,100953.39
2018-05-15T03:42:01.373Z,100960.77
2018-05-15T03:44:30.502Z,100952.26
2018-05-15T03:46:58.764Z,100955.52
2018-05-15T03:49:27.818Z,100960.95
2018-05-15T03:51:56.180Z,100969.63
2018-05-15T03:54:24.490Z,100965.28
2018-05-15T03:56:53.273Z,100962.74
2018-05-15T03:59:21.517Z,100964.38
2018-05-15T04:02:07.726Z,100964.58
2018-05-15T04:04:53.736Z,100964.69
2018-05-15T04:07:39.814Z,100973.35
2018-05-15T04:10:08.181Z,100976.00
2018-05-15T04:12:38.181Z,100976.73
2018-05-15T04:15:06.594Z,100972.37
2018-05-15T04:17:35.715Z,100981.12
2018-05-15T04:20:03.985Z,100979.03
2018-05-15T04:22:33.097Z,100975.09
2018-05-15T04:25:02.157Z,100976.67
2018-05-15T04:27:30.447Z,100982.78
2018-05-15T04:29:58.747Z,100978.80
2018-05-15T04:32:27.106Z,100983.03
2018-05-15T04:34:55.488Z,100983.53
2018-05-15T04:37:24.507Z,100981.16
2018-05-15T04:39:52.779Z,100981.53
2018-05-15T04:42:21.804Z,100980.02
2018-05-15T04:44:50.105Z,100984.66
2018-05-15T04:47:18.477Z,100989.52
2018-05-15T04:49:52.658Z,100992.39
2018-05-15T04:52:20.943Z,100990.78
2018-05-15T04:54:49.284Z,100997.30
2018-05-15T04:57:17.588Z,100989.61
2018-05-15T04:59:45.849Z,100997.05
2018-05-15T05:02:14.883Z,100992.30
2018-05-15T05:04:43.167Z,101001.63
2018-05-15T05:07:11.457Z,101006.44
2018-05-15T05:09:41.474Z,100997.20
2018-05-15T05:12:10.516Z,101005.38
2018-05-15T05:14:42.496Z,101004.25
2018-05-15T05:17:10.755Z,101005.70
2018-05-15T05:19:39.035Z,101009.61
2018-05-15T05:22:09.334Z,101016.30
2018-05-15T05:24:38.694Z,101019.61
2018-05-15T05:27:12.728Z,101020.90
2018-05-15T05:29:43.705Z,101028.77
2018-05-15T05:32:12.857Z,101031.27
2018-05-15T05:34:42.411Z,101030.64
2018-05-15T05:37:11.001Z,101033.16
2018-05-15T05:39:40.192Z,101035.62
2018-05-15T05:42:08.500Z,101034.42
2018-05-15T05:44:37.530Z,101032.64
2018-05-15T05:47:07.935Z,101042.17
2018-05-15T05:49:36.319Z,101042.50
2018-05-15T05:52:04.741Z,101046.11
2018-05-15T05:54:32.948Z,101052.08
2018-05-15T05:57:03.430Z,101051.42
2018-05-15T05:59:31.694Z,101054.61
2018-05-15T06:02:00.005Z,101049.95
2018-05-15T06:04:28.244Z,101048.62
2018-05-15T06:06:57.411Z,101046.17
2018-05-15T06:09:25.778Z,101040.51
2018-05-15T06:11:54.053Z,101045.55
2018-05-15T06:14:22.364Z,101049.52
2018-05-15T06:16:50.627Z,101056.80
2018-05-15T06:19:18.905Z,101050.23
2018-05-15T06:21:47.296Z,101052.92
2018-05-15T06:24:16.417Z,101054.63
2018-05-15T06:26:44.701Z,101059.17
2018-05-15T06:29:13.811Z,101054.05
2018-05-15T06:31:42.062Z,101059.73
2018-05-15T06:34:10.334Z,101060.44
2018-05-15T06:36:38.677Z,101054.20
2018-05-15T06:39:07.801Z,101057.13
2018-05-15T06:41:36.088Z,101051.89
2018-05-15T06:44:05.302Z,101059.12
2018-05-15T06:46:33.590Z,101057.63
2018-05-15T06:49:01.857Z,101050.25
2018-05-15T06:51:30.160Z,101047.37
2018-05-15T06:53:59.194Z,101051.90
2018-05-15T06:56:27.470Z,101051.84
2018-05-15T06:58:57.274Z,101052.92
2018-05-15T07:01:26.318Z,101054.51
2018-05-15T07:03:54.616Z,101060.19
2018-05-15T07:06:22.995Z,101061.00
2018-05-15T07:08:51.380Z,101064.37
2018-05-15T07:11:19.684Z,101067.09
2018-05-15T07:13:48.060Z,101063.64
2018-05-15T07:16:16.324Z,101069.84
2018-05-15T07:18:44.643Z,101074.89
2018-05-15T07:21:12.936Z,101077.22
2018-05-15T07:23:41.182Z,101076.84
2018-05-15T07:26:09.473Z,101075.88
2018-05-15T07:28:38.691Z,101075.98
2018-05-15T07:31:06.971Z,101080.43
2018-05-15T07:33:35.230Z,101074.34
2018-05-15T07:36:03.698Z,101071.70
2018-05-15T07:38:32.722Z,101069.62
2018-05-15T07:41:01.004Z,101075.23
2018-05-15T07:43:29.344Z,101077.58
2018-05-15T07:45:58.438Z,101078.92
2018-05-15T07:48:26.718Z,101077.01
2018-05-15T07:50:55.155Z,101072.11
2018-05-15T07:53:24.311Z,101073.58
2018-05-15T07:55:52.741Z,101075.87
2018-05-15T07:58:21.011Z,101073.55
2018-05-15T08:00:49.285Z,101075.95
2018-05-15T08:03:17.673Z,101072.82
2018-05-15T08:05:46.740Z,101072.70
2018-05-15T08:08:15.014Z,101079.89
2018-05-15T08:10:44.284Z,101077.61
2018-05-15T08:13:13.332Z,101082.43
2018-05-15T08:15:41.663Z,101080.92
2018-05-15T08:18:09.864Z,101078.73
2018-05-15T08:20:38.909Z,101086.14
2018-05-15T08:23:07.299Z,101088.23
2018-05-15T08:25:35.563Z,101092.66
2018-05-15T08:28:03.863Z,101079.53
2018-05-15T08:30:32.150Z,101085.23
2018-05-15T08:33:00.433Z,101081.55
2018-05-15T08:35:28.763Z,101081.66
2018-05-15T08:37:57.135Z,101081.01
2018-05-15T08:40:25.561Z,101082.30
2018-05-15T08:42:53.884Z,101081.77
2018-05-15T08:45:23.090Z,101083.33
2018-05-15T08:47:51.330Z,101082.88
2018-05-15T08:50:19.799Z,101077.78
2018-05-15T08:52:48.060Z,101074.34
2018-05-15T08:55:16.382Z,101074.64
2018-05-15T08:57:44.656Z,101068.86
2018-05-15T09:00:13.698Z,101060.92
2018-05-15T09:02:41.957Z,101068.37
2018-05-15T09:05:11.005Z,101076.97
2018-05-15T09:07:39.263Z,101066.30
2018-05-15T09:10:07.555Z,101075.09
2018-05-15T09:12:35.936Z,101068.22
2018-05-15T09:15:04.975Z,101071.55
2018-05-15T09:17:33.284Z,101065.07
2018-05-15T09:20:01.592Z,101063.80
2018-05-15T09:22:29.842Z,101063.99
2018-05-15T09:24:58.162Z,101066.69
2018-05-15T09:27:26.451Z,101073.41
2018-05-15T09:29:54.801Z,101067.72
2018-05-15T09:32:23.112Z,101062.36
2018-05-15T09:34:51.379Z,101063.05
2018-05-15T09:37:19.652Z,101074.86
2018-05-15T09:39:48.882Z,101068.07
2018-05-15T09:42:18.066Z,101069.11
2018-05-15T09:44:47.312Z,101072.97
2018-05-15T09:47:15.631Z,101069.95
2018-05-15T09:49:43.931Z,101066.97
2018-05-15T09:52:12.288Z,101068.17
2018-05-15T09:54:41.180Z,101068.77
2018-05-15T09:57:09.456Z,101062.09
2018-05-15T09:59:38.469Z,101047.27
2018-05-15T10:02:07.505Z,101053.66
2018-05-15T10:04:35.783Z,101058.70
2018-05-15T10:07:04.055Z,101056.22
2018-05-15T10:09:33.098Z,101060.20
2018-05-15T10:12:01.378Z,101056.39
2018-05-15T10:14:29.647Z,101051.91
2018-05-15T10:16:57.997Z,101056.44
2018-05-15T10:19:26.294Z,101050.43
2018-05-15T10:21:54.555Z,101047.86
2018-05-15T10:24:22.818Z,101047.79
2018-05-15T10:26:51.091Z,101045.02
2018-05-15T10:29:20.119Z,101047.24
2018-05-15T10:31:49.297Z,101046.59
2018-05-15T10:34:17.586Z,101052.29
2018-05-15T10:36:45.929Z,101042.06
2018-05-15T10:39:14.198Z,101044.99
2018-05-15T10:41:42.502Z,101043.14
2018-05-15T10:44:10.779Z,101044.40
2018-05-15T10:46:39.112Z,101042.84
2018-05-15T10:49:07.365Z,101041.39
2018-05-15T10:51:35.642Z,101037.41
2018-05-15T10:54:04.674Z,101043.75
2018-05-15T10:56:32.946Z,101036.23
2018-05-15T10:59:01.214Z,101033.09
2018-05-15T11:01:30.259Z,101029.58
2018-05-15T11:03:58.536Z,101035.66
2018-05-15T11:06:26.901Z,101034.86
2018-05-15T11:08:56.004Z,101038.83
2018-05-15T11:11:24.350Z,101040.73
2018-05-15T11:13:52.607Z,101041.63
2018-05-15T11:16:20.895Z,101033.78
2018-05-15T11:18:50.037Z,101032.89
2018-05-15T11:21:35.827Z,101038.25
2018-05-15T11:27:13.082Z,101034.08
2018-05-15T11:29:41.458Z,101041.30
2018-05-15T11:32:09.711Z,101041.73
2018-05-15T11:34:38.037Z,101039.94
2018-05-15T11:37:06.345Z,101034.16
2018-05-15T11:39:34.604Z,101028.84
2018-05-15T11:42:03.697Z,101033.45
2018-05-15T11:44:31.967Z,101032.58
2018-05-15T11:47:00.244Z,101034.50
2018-05-15T11:49:29.553Z,101029.39
2018-05-15T11:51:57.731Z,101028.11
2018-05-15T11:54:25.228Z,101036.15
2018-05-15T11:56:53.458Z,101035.61
2018-05-15T11:59:21.835Z,101025.84
2018-05-15T12:01:50.866Z,101030.32
2018-05-15T12:04:19.137Z,101029.78
2018-05-15T12:06:48.201Z,101027.50
2018-05-15T12:09:16.468Z,101039.98
2018-05-15T12:11:44.746Z,101030.27
2018-05-15T12:14:13.061Z,101033.50
2018-05-15T12:16:41.427Z,101034.33
2018-05-15T12:19:10.457Z,101030.65
2018-05-15T12:21:38.848Z,101036.31
2018-05-15T12:24:07.105Z,101037.73
2018-05-15T12:26:36.139Z,101040.50
2018-05-15T12:29:04.416Z,101036.92
2018-05-15T12:31:32.683Z,101022.15
2018-05-15T12:34:01.733Z,101026.19
2018-05-15T12:36:30.002Z,101033.84
2018-05-15T12:38:58.280Z,101034.84
2018-05-15T12:41:27.335Z,101033.47
2018-05-15T12:43:55.710Z,101018.05
2018-05-15T12:46:24.033Z,101016.48
2018-05-15T12:48:52.353Z,101029.06
2018-05-15T12:51:20.672Z,101020.77
2018-05-15T12:53:48.921Z,101023.41
2018-05-15T12:56:17.255Z,101018.69
2018-05-15T12:58:45.531Z,101023.29
2018-05-15T13:01:13.818Z,101024.48
2018-05-15T13:03:42.857Z,101015.86
2018-05-15T13:06:11.137Z,101017.77
2018-05-15T13:08:39.573Z,101002.27
2018-05-15T13:11:08.540Z,101007.09
2018-05-15T13:13:36.832Z,101010.57
2018-05-15T13:16:05.079Z,101011.56
2018-05-15T13:18:34.171Z,101007.34
2018-05-15T13:21:02.398Z,101004.78
2018-05-15T13:23:31.483Z,100996.25
2018-05-15T13:26:00.543Z,100990.59
2018-05-15T13:28:28.799Z,100993.80
2018-05-15T13:30:57.092Z,101006.02
2018-05-15T13:33:25.451Z,100994.47
2018-05-15T13:35:53.760Z,101001.17
2018-05-15T13:38:22.058Z,100995.28
2018-05-15T13:40:50.377Z,100990.81
2018-05-15T13:43:18.663Z,100989.09
2018-05-15T13:45:46.958Z,100986.31
2018-05-15T13:48:15.339Z,100977.91
2018-05-15T13:50:43.643Z,100976.89
2018-05-15T13:53:11.907Z,100975.58
2018-05-15T13:55:41.036Z,100973.61
2018-05-15T13:58:09.325Z,100975.97
2018-05-15T14:00:37.571Z,100971.59
2018-05-15T14:03:05.846Z,100966.54
2018-05-15T14:05:34.162Z,100971.85
2018-05-15T14:08:02.414Z,100968.13
2018-05-15T14:10:30.697Z,100963.03
2018-05-15T14:12:58.984Z,100967.28
2018-05-15T14:15:29.269Z,100969.30
2018-05-15T14:17:57.611Z,100966.72
2018-05-15T14:20:26.156Z,100967.64
2018-05-15T14:22:55.706Z,100966.27
2018-05-15T14:25:24.043Z,100955.11
2018-05-15T14:27:52.352Z,100959.59
2018-05-15T14:30:20.659Z,100956.03
2018-05-15T14:32:49.810Z,100954.48
2018-05-15T14:35:18.851Z,100950.78
2018-05-15T14:37:47.690Z,100947.49
2018-05-15T14:40:16.799Z,100950.02
2018-05-15T14:43:03.096Z,100940.56
2018-05-15T14:45:31.343Z,100936.30
2018-05-15T14:47:59.611Z,100938.09
2018-05-15T14:50:27.988Z,100936.83
2018-05-15T14:52:56.426Z,100949.23
2018-05-15T14:55:24.699Z,100945.40
2018-05-15T14:57:52.984Z,100942.02
2018-05-15T15:00:21.284Z,100955.24
2018-05-15T15:02:49.531Z,100956.50
2018-05-15T15:05:20.019Z,100951.09
2018-05-15T15:07:48.348Z,100954.30
2018-05-15T15:10:16.811Z,100942.78
2018-05-15T15:12:45.483Z,100943.75
2018-05-15T15:15:13.833Z,100955.70
2018-05-15T15:17:42.249Z,100947.20
2018-05-15T15:20:11.289Z,100948.98
2018-05-15T15:22:39.868Z,100939.32
2018-05-15T15:25:08.127Z,100937.66
2018-05-15T15:27:37.563Z,100927.75
2018-05-15T15:30:06.769Z,100936.47
2018-05-15T15:32:35.441Z,100926.88
2018-05-15T15:35:04.983Z,100920.38
2018-05-15T15:37:33.309Z,100914.73
2018-05-15T15:40:03.911Z,100919.48
2018-05-15T15:42:33.481Z,100921.00
2018-05-15T15:45:03.264Z,100916.56
2018-05-15T15:47:31.559Z,100908.08
2018-05-15T15:50:00.636Z,100915.28
2018-05-15T15:52:28.898Z,100906.06
2018-05-15T15:54:57.173Z,100913.11
2018-05-15T15:57:25.487Z,100917.83
2018-05-15T15:59:54.027Z,100917.70
2018-05-15T16:02:22.081Z,100918.03
2018-05-15T16:04:50.611Z,100917.86
2018-05-15T16:07:20.900Z,100920.02
2018-05-15T16:09:49.871Z,100919.55
2018-05-15T16:12:19.366Z,100921.36
2018-05-15T16:14:47.622Z,100920.63
2018-05-15T16:17:16.205Z,100913.22
2018-05-15T16:19:45.272Z,100913.71
2018-05-15T16:22:13.599Z,100909.42
2018-05-15T16:24:42.867Z,100925.31
2018-05-15T16:27:11.141Z,100908.25
2018-05-15T16:29:39.419Z,100912.22
2018-05-15T16:32:07.818Z,100913.36
2018-05-15T16:34:36.772Z,100915.25
2018-05-15T16:37:05.032Z,100911.44
2018-05-15T16:39:33.335Z,100914.05
2018-05-15T16:42:03.080Z,100909.86
2018-05-15T16:44:31.481Z,100909.96
2018-05-15T16:47:00.499Z,100909.16
2018-05-15T16:49:34.051Z,100905.00
2018-05-15T16:52:09.958Z,100905.77
2018-05-15T16:54:51.249Z,100903.00
2018-05-15T16:57:21.341Z,100904.43
2018-05-15T16:59:50.182Z,100901.36
2018-05-15T17:02:20.903Z,100906.33
2018-05-15T17:04:49.447Z,100908.20
2018-05-15T17:07:17.792Z,100909.86
2018-05-15T17:09:48.050Z,100905.00
2018-05-15T17:12:17.089Z,100907.77
2018-05-15T17:14:46.248Z,100908.86
2018-05-15T17:17:14.741Z,100909.70
2018-05-15T17:19:43.008Z,100906.87
2018-05-15T17:22:11.370Z,100912.28
2018-05-15T17:24:39.989Z,100904.87
2018-05-15T17:27:08.447Z,100912.10
2018-05-15T17:29:37.058Z,100908.11
2018-05-15T17:32:05.547Z,100902.23
2018-05-15T17:34:33.822Z,100906.22
2018-05-15T17:37:02.092Z,100908.11
2018-05-15T17:39:32.123Z,100906.39
2018-05-15T17:42:02.686Z,100907.85
2018-05-15T17:44:33.644Z,100902.32
2018-05-15T17:47:02.063Z,100905.41
2018-05-15T17:49:30.335Z,100899.11
2018-05-15T17:52:04.913Z,100909.44
2018-05-15T17:54:34.252Z,100903.99
2018-05-15T17:57:02.786Z,100902.50
2018-05-15T17:59:31.205Z,100911.11
2018-05-15T18:02:00.523Z,100909.48
2018-05-15T18:04:33.497Z,100911.63
2018-05-15T18:07:02.575Z,100907.19
2018-05-15T18:09:31.128Z,100910.58
2018-05-15T18:11:59.460Z,100903.45
2018-05-15T18:14:27.751Z,100906.69
2018-05-15T18:16:56.120Z,100907.52
2018-05-15T18:19:24.443Z,100905.06
2018-05-15T18:21:52.789Z,100905.89
2018-05-15T18:24:23.071Z,100908.13
2018-05-15T18:26:51.422Z,100909.86
2018-05-15T18:29:20.452Z,100917.89
2018-05-15T18:31:48.711Z,100914.47
2018-05-15T18:34:17.158Z,100911.39
2018-05-15T18:36:45.517Z,100910.38
2018-05-15T18:39:13.797Z,100914.51
2018-05-15T18:41:43.535Z,100916.64
2018-05-15T18:44:11.839Z,100918.37
2018-05-15T18:46:40.247Z,100912.99
2018-05-15T18:49:08.603Z,100917.33
2018-05-15T18:51:37.713Z,100917.92
2018-05-15T18:54:06.885Z,100919.57
2018-05-15T18:56:35.204Z,100916.80
2018-05-15T18:59:04.245Z,100928.27
2018-05-15T19:01:34.260Z,100928.38
2018-05-15T19:04:03.299Z,100926.77
2018-05-15T19:06:32.705Z,100934.60
2018-05-15T19:09:02.265Z,100932.67
2018-05-15T19:11:32.034Z,100941.80
2018-05-15T19:14:00.412Z,100940.52
2018-05-15T19:16:29.731Z,100935.32
2018-05-15T19:18:58.253Z,100947.09
2018-05-15T19:21:26.711Z,100938.20
2018-05-15T19:23:55.746Z,100943.70
2018-05-15T19:26:24.817Z,100939.64
2018-05-15T19:28:54.452Z,100937.72
2018-05-15T19:31:29.170Z,100948.31
2018-05-15T19:34:00.586Z,100944.46
2018-05-15T19:36:32.040Z,100944.46
2018-05-15T19:39:06.265Z,100942.75
2018-05-15T19:41:34.579Z,100947.45
2018-05-15T19:44:02.888Z,100944.70
2018-05-15T19:46:33.083Z,100945.69
2018-05-15T19:49:01.399Z,100947.65
2018-05-15T19:51:29.648Z,100946.13
2018-05-15T19:53:58.026Z,100950.64
2018-05-15T19:56:28.167Z,100947.84
2018-05-15T19:58:58.546Z,100946.59
2018-05-15T20:01:27.842Z,100953.86
2018-05-15T20:03:57.866Z,100953.47
2018-05-15T20:06:26.907Z,100951.77
2018-05-15T20:08:56.702Z,100951.77
2018-05-15T20:11:26.497Z,100956.05
2018-05-15T20:13:54.895Z,100950.48
2018-05-15T20:16:23.966Z,100956.42
2018-05-15T20:18:52.224Z,100960.51
2018-05-15T20:21:20.480Z,100951.89
2018-05-15T20:23:49.504Z,100955.95
2018-05-15T20:26:18.904Z,100950.31
2018-05-15T20:28:47.165Z,100952.45
2018-05-15T20:31:16.433Z,100954.41
2018-05-15T20:33:46.696Z,100946.33
2018-05-15T20:36:14.968Z,100953.81
2018-05-15T20:38:43.488Z,100953.47
2018-05-15T20:41:11.747Z,100951.77
2018-05-15T20:43:40.881Z,100949.97
2018-05-15T20:46:09.185Z,100957.84
2018-05-15T20:48:38.372Z,100951.20
2018-05-15T20:51:06.658Z,100952.97
2018-05-15T20:53:35.051Z,100953.98
2018-05-15T20:56:04.077Z,100963.44
2018-05-15T20:58:32.374Z,100949.86
2018-05-15T21:01:00.688Z,100955.64
2018-05-15T21:03:29.399Z,100957.19
2018-05-15T21:05:57.686Z,100958.10
2018-05-15T21:08:25.952Z,100950.92
2018-05-15T21:10:54.221Z,100952.27
2018-05-15T21:13:22.496Z,100955.04
2018-05-15T21:15:51.140Z,100958.61
2018-05-15T21:18:19.501Z,100962.02
2018-05-15T21:20:48.830Z,100962.23
2018-05-15T21:23:17.120Z,100962.12
2018-05-15T21:25:45.426Z,100964.42
2018-05-15T21:28:14.193Z,100965.30
2018-05-15T21:30:42.889Z,100963.11
2018-05-15T21:33:11.635Z,100956.86
2018-05-15T21:35:39.914Z,100958.77
2018-05-15T21:38:08.275Z,100959.30
2018-05-15T21:40:38.641Z,100960.89
2018-05-15T21:43:06.901Z,100958.02
2018-05-15T21:45:35.191Z,100956.61
2018-05-15T21:48:03.490Z,100954.38
2018-05-15T21:50:31.784Z,100955.55
2018-05-15T21:53:00.174Z,100956.17
2018-05-15T21:55:28.461Z,100948.96
2018-05-15T21:57:56.855Z,100941.75
2018-05-15T22:00:25.138Z,100951.41
2018-05-15T22:02:53.421Z,100945.22
2018-05-15T22:05:21.705Z,100946.54
2018-05-15T22:07:50.836Z,100945.42
2018-05-15T22:10:19.181Z,100947.36
2018-05-15T22:13:05.233Z,100942.36
2018-05-15T22:15:51.363Z,100945.87
2018-05-15T22:18:37.314Z,100945.16
2018-05-15T22:21:23.580Z,100937.19
2018-05-15T22:23:51.094Z,100936.09
2018-05-15T22:26:19.387Z,100938.96
2018-05-15T22:28:47.656Z,100934.78
2018-05-15T22:31:15.950Z,100942.58
2018-05-15T22:33:44.219Z,100936.78
2018-05-15T22:36:12.499Z,100929.56
2018-05-15T22:38:40.913Z,100934.70
2018-05-15T22:41:09.191Z,100923.16
2018-05-15T22:43:37.462Z,100928.89
2018-05-15T22:46:05.751Z,100926.36
2018-05-15T22:48:34.040Z,100921.05
2018-05-15T22:51:03.148Z,100919.09
2018-05-15T22:53:32.258Z,100910.64
2018-05-15T22:56:00.546Z,100917.51
2018-05-15T22:58:29.595Z,100927.04
2018-05-15T23:00:57.955Z,100918.63
2018-05-15T23:03:26.311Z,100924.45
2018-05-15T23:05:55.864Z,100925.09
2018-05-15T23:08:24.159Z,100923.61
2018-05-15T23:10:52.433Z,100923.23
2018-05-15T23:13:20.733Z,100918.41
2018-05-15T23:15:49.088Z,100917.22
2018-05-15T23:18:17.297Z,100914.31
2018-05-15T23:20:46.351Z,100911.86
2018-05-15T23:23:14.658Z,100915.84
2018-05-15T23:25:42.987Z,100911.92
2018-05-15T23:28:12.032Z,100913.19
2018-05-15T23:30:40.314Z,100918.63
2018-05-15T23:33:08.692Z,100911.47
2018-05-15T23:35:37.695Z,100910.61
2018-05-15T23:38:06.092Z,100913.19
2018-05-15T23:40:34.498Z,100917.70
2018-05-15T23:43:02.778Z,100912.41
2018-05-15T23:45:31.063Z,100903.30
2018-05-15T23:48:00.188Z,100905.41
2018-05-15T23:50:28.570Z,100910.88
2018-05-15T23:52:57.677Z,100906.56
2018-05-15T23:55:25.974Z,100904.73
2018-05-15T23:57:54.257Z,100901.86
